sensor_id;sensor_type;location;lat;lon;timestamp;P1;durP1;ratioP1;P2;durP2;ratioP2
79369;SDS011;68835;53.096;17.932;2023-08-24T00:02:03;11.50;;;5.50;;
79369;SDS011;68835;53.096;17.932;2023-08-24T00:04:31;9.50;;;5.30;;
79369;SDS011;68835;53.096;17.932;2023-08-24T00:06:58;11.10;;;5.30;;
79369;SDS011;68835;53.096;17.932;2023-08-24T00:09:26;15.80;;;5.70;;
79369;SDS011;68835;53.096;17.932;2023-08-24T00:11:53;9.70;;;4.90;;
79369;SDS011;68835;53.096;17.932;2023-08-24T00:14:21;8.40;;;4.30;;
79369;SDS011;68835;53.096;17.932;2023-08-24T00:16:48;7.10;;;4.80;;
79369;SDS011;68835;53.096;17.932;2023-08-24T00:19:16;9.40;;;4.40;;
79369;SDS011;68835;53.096;17.932;2023-08-24T00:21:43;5.50;;;3.20;;
79369;SDS011;68835;53.096;17.932;2023-08-24T00:24:11;7.80;;;3.50;;
79369;SDS011;68835;53.096;17.932;2023-08-24T00:26:38;7.40;;;3.50;;
79369;SDS011;68835;53.096;17.932;2023-08-24T00:29:05;7.60;;;3.40;;
79369;SDS011;68835;53.096;17.932;2023-08-24T00:31:33;8.30;;;3.90;;
79369;SDS011;68835;53.096;17.932;2023-08-24T00:34:00;6.00;;;4.10;;
79369;SDS011;68835;53.096;17.932;2023-08-24T00:36:28;8.50;;;4.60;;
79369;SDS011;68835;53.096;17.932;2023-08-24T00:38:55;10.90;;;4.80;;
79369;SDS011;68835;53.096;17.932;2023-08-24T00:41:22;10.90;;;4.60;;
79369;SDS011;68835;53.096;17.932;2023-08-24T00:43:52;7.30;;;3.70;;
79369;SDS011;68835;53.096;17.932;2023-08-24T00:46:20;7.70;;;4.60;;
79369;SDS011;68835;53.096;17.932;2023-08-24T00:48:49;7.60;;;4.50;;
79369;SDS011;68835;53.096;17.932;2023-08-24T00:51:18;8.40;;;4.30;;
79369;SDS011;68835;53.096;17.932;2023-08-24T00:53:46;9.50;;;4.70;;
79369;SDS011;68835;53.096;17.932;2023-08-24T00:56:13;10.00;;;4.60;;
79369;SDS011;68835;53.096;17.932;2023-08-24T00:58:41;7.70;;;4.30;;
79369;SDS011;68835;53.096;17.932;2023-08-24T01:01:09;8.00;;;4.00;;
79369;SDS011;68835;53.096;17.932;2023-08-24T01:03:36;8.20;;;4.10;;
79369;SDS011;68835;53.096;17.932;2023-08-24T01:06:06;6.00;;;4.00;;
79369;SDS011;68835;53.096;17.932;2023-08-24T01:08:33;10.90;;;4.30;;
79369;SDS011;68835;53.096;17.932;2023-08-24T01:11:07;8.80;;;3.70;;
79369;SDS011;68835;53.096;17.932;2023-08-24T01:16:18;6.50;;;4.30;;
79369;SDS011;68835;53.096;17.932;2023-08-24T01:18:55;6.70;;;3.80;;
79369;SDS011;68835;53.096;17.932;2023-08-24T01:21:23;7.10;;;3.90;;
79369;SDS011;68835;53.096;17.932;2023-08-24T01:26:50;5.40;;;3.90;;
79369;SDS011;68835;53.096;17.932;2023-08-24T01:29:22;6.20;;;3.60;;
79369;SDS011;68835;53.096;17.932;2023-08-24T01:31:49;8.90;;;3.90;;
79369;SDS011;68835;53.096;17.932;2023-08-24T01:34:17;6.00;;;3.40;;
79369;SDS011;68835;53.096;17.932;2023-08-24T01:36:45;6.10;;;3.70;;
79369;SDS011;68835;53.096;17.932;2023-08-24T01:39:14;8.90;;;3.80;;
79369;SDS011;68835;53.096;17.932;2023-08-24T01:41:56;14.10;;;6.10;;
79369;SDS011;68835;53.096;17.932;2023-08-24T01:44:29;11.40;;;4.70;;
79369;SDS011;68835;53.096;17.932;2023-08-24T01:47:01;8.50;;;4.90;;
79369;SDS011;68835;53.096;17.932;2023-08-24T01:49:32;8.50;;;4.20;;
79369;SDS011;68835;53.096;17.932;2023-08-24T01:52:01;8.00;;;4.60;;
79369;SDS011;68835;53.096;17.932;2023-08-24T01:54:31;8.00;;;4.50;;
79369;SDS011;68835;53.096;17.932;2023-08-24T01:56:59;9.90;;;4.70;;
79369;SDS011;68835;53.096;17.932;2023-08-24T02:04:21;8.00;;;4.60;;
79369;SDS011;68835;53.096;17.932;2023-08-24T02:06:48;10.00;;;4.30;;
79369;SDS011;68835;53.096;17.932;2023-08-24T02:09:16;7.70;;;4.50;;
79369;SDS011;68835;53.096;17.932;2023-08-24T02:11:43;10.80;;;5.20;;
79369;SDS011;68835;53.096;17.932;2023-08-24T02:16:38;7.20;;;4.30;;
79369;SDS011;68835;53.096;17.932;2023-08-24T02:19:06;9.80;;;5.30;;
79369;SDS011;68835;53.096;17.932;2023-08-24T02:24:04;8.40;;;4.80;;
79369;SDS011;68835;53.096;17.932;2023-08-24T02:26:32;9.40;;;4.70;;
79369;SDS011;68835;53.096;17.932;2023-08-24T02:29:00;8.30;;;4.60;;
79369;SDS011;68835;53.096;17.932;2023-08-24T02:31:27;10.10;;;4.90;;
79369;SDS011;68835;53.096;17.932;2023-08-24T02:33:56;7.40;;;4.50;;
79369;SDS011;68835;53.096;17.932;2023-08-24T02:38:50;10.00;;;4.50;;
79369;SDS011;68835;53.096;17.932;2023-08-24T02:41:18;9.90;;;4.90;;
79369;SDS011;68835;53.096;17.932;2023-08-24T02:46:13;8.30;;;4.90;;
79369;SDS011;68835;53.096;17.932;2023-08-24T02:48:40;13.10;;;5.20;;
79369;SDS011;68835;53.096;17.932;2023-08-24T02:51:08;11.30;;;5.20;;
79369;SDS011;68835;53.096;17.932;2023-08-24T02:53:37;9.60;;;5.00;;
79369;SDS011;68835;53.096;17.932;2023-08-24T02:56:04;12.30;;;5.50;;
79369;SDS011;68835;53.096;17.932;2023-08-24T02:58:32;10.40;;;4.70;;
79369;SDS011;68835;53.096;17.932;2023-08-24T03:01:03;11.00;;;4.80;;
79369;SDS011;68835;53.096;17.932;2023-08-24T03:03:35;13.20;;;5.10;;
79369;SDS011;68835;53.096;17.932;2023-08-24T03:06:05;8.10;;;4.90;;
79369;SDS011;68835;53.096;17.932;2023-08-24T03:08:34;11.80;;;5.20;;
79369;SDS011;68835;53.096;17.932;2023-08-24T03:11:03;13.80;;;5.40;;
79369;SDS011;68835;53.096;17.932;2023-08-24T03:13:31;12.60;;;5.30;;
79369;SDS011;68835;53.096;17.932;2023-08-24T03:16:08;8.50;;;4.70;;
79369;SDS011;68835;53.096;17.932;2023-08-24T03:18:36;7.50;;;4.80;;
79369;SDS011;68835;53.096;17.932;2023-08-24T03:21:04;12.70;;;5.20;;
79369;SDS011;68835;53.096;17.932;2023-08-24T03:23:33;7.80;;;4.90;;
79369;SDS011;68835;53.096;17.932;2023-08-24T03:28:28;11.90;;;4.70;;
79369;SDS011;68835;53.096;17.932;2023-08-24T03:30:55;7.80;;;4.60;;
79369;SDS011;68835;53.096;17.932;2023-08-24T03:33:23;12.10;;;4.50;;
79369;SDS011;68835;53.096;17.932;2023-08-24T03:35:50;8.80;;;4.60;;
79369;SDS011;68835;53.096;17.932;2023-08-24T03:38:18;9.70;;;5.00;;
79369;SDS011;68835;53.096;17.932;2023-08-24T03:40:45;7.60;;;4.30;;
79369;SDS011;68835;53.096;17.932;2023-08-24T03:43:12;7.90;;;4.00;;
79369;SDS011;68835;53.096;17.932;2023-08-24T03:48:08;12.20;;;4.50;;
79369;SDS011;68835;53.096;17.932;2023-08-24T03:53:03;7.90;;;4.60;;
79369;SDS011;68835;53.096;17.932;2023-08-24T03:55:30;9.20;;;5.10;;
79369;SDS011;68835;53.096;17.932;2023-08-24T03:57:59;8.00;;;4.70;;
79369;SDS011;68835;53.096;17.932;2023-08-24T04:00:27;10.30;;;4.90;;
79369;SDS011;68835;53.096;17.932;2023-08-24T04:02:54;5.70;;;3.70;;
79369;SDS011;68835;53.096;17.932;2023-08-24T04:05:24;10.40;;;4.00;;
79369;SDS011;68835;53.096;17.932;2023-08-24T04:07:53;7.10;;;4.20;;
79369;SDS011;68835;53.096;17.932;2023-08-24T04:12:48;9.60;;;4.00;;
79369;SDS011;68835;53.096;17.932;2023-08-24T04:15:15;6.90;;;4.30;;
79369;SDS011;68835;53.096;17.932;2023-08-24T04:17:43;8.90;;;4.70;;
79369;SDS011;68835;53.096;17.932;2023-08-24T04:20:10;7.50;;;4.00;;
79369;SDS011;68835;53.096;17.932;2023-08-24T04:22:38;6.10;;;3.30;;
79369;SDS011;68835;53.096;17.932;2023-08-24T04:27:33;7.90;;;4.00;;
79369;SDS011;68835;53.096;17.932;2023-08-24T04:30:00;5.60;;;3.40;;
79369;SDS011;68835;53.096;17.932;2023-08-24T04:32:28;6.40;;;3.80;;
79369;SDS011;68835;53.096;17.932;2023-08-24T04:34:55;7.60;;;4.40;;
79369;SDS011;68835;53.096;17.932;2023-08-24T04:39:50;9.20;;;5.30;;
79369;SDS011;68835;53.096;17.932;2023-08-24T04:42:17;8.60;;;4.50;;
79369;SDS011;68835;53.096;17.932;2023-08-24T04:44:44;8.60;;;4.70;;
79369;SDS011;68835;53.096;17.932;2023-08-24T04:49:39;8.40;;;4.30;;
79369;SDS011;68835;53.096;17.932;2023-08-24T04:52:07;6.70;;;4.40;;
79369;SDS011;68835;53.096;17.932;2023-08-24T04:54:34;8.00;;;4.80;;
79369;SDS011;68835;53.096;17.932;2023-08-24T04:59:29;7.00;;;4.00;;
79369;SDS011;68835;53.096;17.932;2023-08-24T05:01:57;7.20;;;2.90;;
79369;SDS011;68835;53.096;17.932;2023-08-24T05:04:26;7.40;;;3.80;;
79369;SDS011;68835;53.096;17.932;2023-08-24T05:06:53;6.20;;;3.20;;
79369;SDS011;68835;53.096;17.932;2023-08-24T05:09:20;5.90;;;3.10;;
79369;SDS011;68835;53.096;17.932;2023-08-24T05:11:49;7.40;;;2.80;;
79369;SDS011;68835;53.096;17.932;2023-08-24T05:14:17;6.60;;;3.20;;
79369;SDS011;68835;53.096;17.932;2023-08-24T05:16:44;8.40;;;2.90;;
79369;SDS011;68835;53.096;17.932;2023-08-24T05:19:11;7.60;;;4.00;;
79369;SDS011;68835;53.096;17.932;2023-08-24T05:21:39;5.80;;;3.50;;
79369;SDS011;68835;53.096;17.932;2023-08-24T05:24:06;5.40;;;3.50;;
79369;SDS011;68835;53.096;17.932;2023-08-24T05:26:34;4.80;;;2.70;;
79369;SDS011;68835;53.096;17.932;2023-08-24T05:31:28;5.00;;;2.20;;
79369;SDS011;68835;53.096;17.932;2023-08-24T05:33:56;11.70;;;5.00;;
79369;SDS011;68835;53.096;17.932;2023-08-24T05:36:23;7.30;;;3.70;;
79369;SDS011;68835;53.096;17.932;2023-08-24T05:38:51;4.80;;;2.90;;
79369;SDS011;68835;53.096;17.932;2023-08-24T05:41:21;6.90;;;3.20;;
79369;SDS011;68835;53.096;17.932;2023-08-24T05:43:49;9.10;;;3.50;;
79369;SDS011;68835;53.096;17.932;2023-08-24T05:50:56;6.30;;;3.20;;
79369;SDS011;68835;53.096;17.932;2023-08-24T05:53:23;6.90;;;3.70;;
79369;SDS011;68835;53.096;17.932;2023-08-24T05:55:51;5.80;;;3.00;;
79369;SDS011;68835;53.096;17.932;2023-08-24T05:58:19;6.70;;;3.20;;
79369;SDS011;68835;53.096;17.932;2023-08-24T06:00:46;10.20;;;4.10;;
79369;SDS011;68835;53.096;17.932;2023-08-24T06:03:14;7.60;;;3.80;;
79369;SDS011;68835;53.096;17.932;2023-08-24T06:05:41;5.60;;;3.00;;
79369;SDS011;68835;53.096;17.932;2023-08-24T06:08:08;7.10;;;3.40;;
79369;SDS011;68835;53.096;17.932;2023-08-24T06:10:36;8.10;;;3.60;;
79369;SDS011;68835;53.096;17.932;2023-08-24T06:13:03;6.80;;;3.00;;
79369;SDS011;68835;53.096;17.932;2023-08-24T06:15:30;4.70;;;3.20;;
79369;SDS011;68835;53.096;17.932;2023-08-24T06:17:58;5.00;;;3.20;;
79369;SDS011;68835;53.096;17.932;2023-08-24T06:20:27;8.40;;;4.00;;
79369;SDS011;68835;53.096;17.932;2023-08-24T06:22:55;5.40;;;3.20;;
79369;SDS011;68835;53.096;17.932;2023-08-24T06:25:22;7.10;;;3.30;;
79369;SDS011;68835;53.096;17.932;2023-08-24T06:27:50;4.00;;;2.50;;
79369;SDS011;68835;53.096;17.932;2023-08-24T06:30:17;7.20;;;3.00;;
79369;SDS011;68835;53.096;17.932;2023-08-24T06:32:44;5.60;;;2.50;;
79369;SDS011;68835;53.096;17.932;2023-08-24T06:35:12;6.50;;;2.70;;
79369;SDS011;68835;53.096;17.932;2023-08-24T06:37:42;5.50;;;2.50;;
79369;SDS011;68835;53.096;17.932;2023-08-24T06:40:10;5.90;;;2.80;;
79369;SDS011;68835;53.096;17.932;2023-08-24T06:42:38;6.00;;;3.10;;
79369;SDS011;68835;53.096;17.932;2023-08-24T06:45:05;3.70;;;1.90;;
79369;SDS011;68835;53.096;17.932;2023-08-24T06:47:33;5.10;;;2.90;;
79369;SDS011;68835;53.096;17.932;2023-08-24T06:50:00;5.40;;;2.70;;
79369;SDS011;68835;53.096;17.932;2023-08-24T06:52:28;3.90;;;2.50;;
79369;SDS011;68835;53.096;17.932;2023-08-24T06:54:55;5.40;;;2.50;;
79369;SDS011;68835;53.096;17.932;2023-08-24T06:57:23;3.70;;;2.50;;
79369;SDS011;68835;53.096;17.932;2023-08-24T06:59:50;3.30;;;2.10;;
79369;SDS011;68835;53.096;17.932;2023-08-24T07:02:18;3.40;;;2.50;;
79369;SDS011;68835;53.096;17.932;2023-08-24T07:04:46;5.00;;;2.60;;
79369;SDS011;68835;53.096;17.932;2023-08-24T07:07:13;4.20;;;2.20;;
79369;SDS011;68835;53.096;17.932;2023-08-24T07:09:41;3.30;;;2.00;;
79369;SDS011;68835;53.096;17.932;2023-08-24T07:12:08;3.30;;;2.00;;
79369;SDS011;68835;53.096;17.932;2023-08-24T07:14:37;4.40;;;2.00;;
79369;SDS011;68835;53.096;17.932;2023-08-24T07:17:05;7.70;;;2.20;;
79369;SDS011;68835;53.096;17.932;2023-08-24T07:19:33;5.50;;;2.30;;
79369;SDS011;68835;53.096;17.932;2023-08-24T07:22:00;3.30;;;1.90;;
79369;SDS011;68835;53.096;17.932;2023-08-24T07:24:27;3.90;;;1.90;;
79369;SDS011;68835;53.096;17.932;2023-08-24T07:26:57;5.30;;;2.40;;
79369;SDS011;68835;53.096;17.932;2023-08-24T07:29:25;3.90;;;1.60;;
79369;SDS011;68835;53.096;17.932;2023-08-24T07:31:53;7.00;;;1.70;;
79369;SDS011;68835;53.096;17.932;2023-08-24T07:34:20;5.20;;;1.80;;
79369;SDS011;68835;53.096;17.932;2023-08-24T07:36:49;2.80;;;2.00;;
79369;SDS011;68835;53.096;17.932;2023-08-24T07:39:16;2.50;;;1.70;;
79369;SDS011;68835;53.096;17.932;2023-08-24T07:41:44;6.80;;;1.90;;
79369;SDS011;68835;53.096;17.932;2023-08-24T07:44:12;2.80;;;2.00;;
79369;SDS011;68835;53.096;17.932;2023-08-24T07:46:39;2.70;;;1.70;;
79369;SDS011;68835;53.096;17.932;2023-08-24T07:49:07;5.10;;;2.00;;
79369;SDS011;68835;53.096;17.932;2023-08-24T07:51:34;2.80;;;1.80;;
79369;SDS011;68835;53.096;17.932;2023-08-24T07:54:02;5.70;;;1.70;;
79369;SDS011;68835;53.096;17.932;2023-08-24T07:56:31;3.10;;;1.60;;
79369;SDS011;68835;53.096;17.932;2023-08-24T07:58:58;4.80;;;2.00;;
79369;SDS011;68835;53.096;17.932;2023-08-24T08:01:26;5.70;;;2.10;;
79369;SDS011;68835;53.096;17.932;2023-08-24T08:03:53;3.50;;;1.70;;
79369;SDS011;68835;53.096;17.932;2023-08-24T08:06:20;3.70;;;2.20;;
79369;SDS011;68835;53.096;17.932;2023-08-24T08:08:48;5.10;;;2.20;;
79369;SDS011;68835;53.096;17.932;2023-08-24T08:11:17;4.10;;;1.80;;
79369;SDS011;68835;53.096;17.932;2023-08-24T08:13:45;4.10;;;1.90;;
79369;SDS011;68835;53.096;17.932;2023-08-24T08:16:12;6.70;;;2.10;;
79369;SDS011;68835;53.096;17.932;2023-08-24T08:18:40;3.80;;;1.70;;
79369;SDS011;68835;53.096;17.932;2023-08-24T08:21:14;4.00;;;1.80;;
79369;SDS011;68835;53.096;17.932;2023-08-24T08:23:46;5.90;;;1.70;;
79369;SDS011;68835;53.096;17.932;2023-08-24T08:30:16;3.50;;;2.20;;
79369;SDS011;68835;53.096;17.932;2023-08-24T08:32:43;3.40;;;1.80;;
79369;SDS011;68835;53.096;17.932;2023-08-24T08:35:11;5.10;;;2.30;;
79369;SDS011;68835;53.096;17.932;2023-08-24T08:37:38;3.30;;;1.90;;
79369;SDS011;68835;53.096;17.932;2023-08-24T08:40:08;2.90;;;1.50;;
79369;SDS011;68835;53.096;17.932;2023-08-24T08:42:37;3.20;;;2.10;;
79369;SDS011;68835;53.096;17.932;2023-08-24T08:45:08;10.10;;;2.20;;
79369;SDS011;68835;53.096;17.932;2023-08-24T08:47:37;3.20;;;1.80;;
79369;SDS011;68835;53.096;17.932;2023-08-24T08:50:05;3.90;;;1.90;;
79369;SDS011;68835;53.096;17.932;2023-08-24T08:56:09;3.00;;;1.60;;
79369;SDS011;68835;53.096;17.932;2023-08-24T08:58:38;3.80;;;1.90;;
79369;SDS011;68835;53.096;17.932;2023-08-24T09:01:10;2.70;;;1.90;;
79369;SDS011;68835;53.096;17.932;2023-08-24T09:03:39;4.70;;;1.70;;
79369;SDS011;68835;53.096;17.932;2023-08-24T09:06:07;2.70;;;1.60;;
79369;SDS011;68835;53.096;17.932;2023-08-24T09:08:34;3.00;;;2.00;;
79369;SDS011;68835;53.096;17.932;2023-08-24T09:11:01;3.70;;;2.40;;
79369;SDS011;68835;53.096;17.932;2023-08-24T09:13:30;2.10;;;1.30;;
79369;SDS011;68835;53.096;17.932;2023-08-24T09:16:05;3.90;;;2.00;;
79369;SDS011;68835;53.096;17.932;2023-08-24T09:18:37;3.50;;;1.90;;
79369;SDS011;68835;53.096;17.932;2023-08-24T09:21:09;3.20;;;1.70;;
79369;SDS011;68835;53.096;17.932;2023-08-24T09:23:38;4.20;;;1.90;;
79369;SDS011;68835;53.096;17.932;2023-08-24T09:26:33;2.60;;;1.50;;
79369;SDS011;68835;53.096;17.932;2023-08-24T09:29:10;7.60;;;2.30;;
79369;SDS011;68835;53.096;17.932;2023-08-24T09:34:12;3.90;;;1.90;;
79369;SDS011;68835;53.096;17.932;2023-08-24T09:36:40;6.60;;;2.20;;
79369;SDS011;68835;53.096;17.932;2023-08-24T09:39:07;3.30;;;1.90;;
79369;SDS011;68835;53.096;17.932;2023-08-24T09:41:44;4.20;;;1.60;;
79369;SDS011;68835;53.096;17.932;2023-08-24T09:44:13;2.20;;;1.50;;
79369;SDS011;68835;53.096;17.932;2023-08-24T09:46:41;1.80;;;1.50;;
79369;SDS011;68835;53.096;17.932;2023-08-24T09:49:09;2.70;;;1.60;;
79369;SDS011;68835;53.096;17.932;2023-08-24T09:51:39;3.10;;;1.60;;
79369;SDS011;68835;53.096;17.932;2023-08-24T09:54:08;2.60;;;2.00;;
79369;SDS011;68835;53.096;17.932;2023-08-24T09:56:40;5.50;;;1.80;;
79369;SDS011;68835;53.096;17.932;2023-08-24T09:59:12;3.00;;;1.90;;
79369;SDS011;68835;53.096;17.932;2023-08-24T10:04:17;1.70;;;1.40;;
79369;SDS011;68835;53.096;17.932;2023-08-24T10:06:59;1.90;;;1.50;;
79369;SDS011;68835;53.096;17.932;2023-08-24T10:09:39;3.40;;;2.10;;
79369;SDS011;68835;53.096;17.932;2023-08-24T10:12:31;4.00;;;2.20;;
79369;SDS011;68835;53.096;17.932;2023-08-24T10:17:31;2.80;;;1.60;;
79369;SDS011;68835;53.096;17.932;2023-08-24T10:20:00;3.00;;;2.00;;
79369;SDS011;68835;53.096;17.932;2023-08-24T10:22:33;1.40;;;1.30;;
79369;SDS011;68835;53.096;17.932;2023-08-24T10:25:02;4.10;;;2.00;;
79369;SDS011;68835;53.096;17.932;2023-08-24T10:27:30;2.60;;;1.80;;
79369;SDS011;68835;53.096;17.932;2023-08-24T10:29:58;3.30;;;1.50;;
79369;SDS011;68835;53.096;17.932;2023-08-24T10:32:26;4.40;;;1.70;;
79369;SDS011;68835;53.096;17.932;2023-08-24T10:34:54;4.10;;;1.70;;
79369;SDS011;68835;53.096;17.932;2023-08-24T10:37:25;2.10;;;1.60;;
79369;SDS011;68835;53.096;17.932;2023-08-24T10:39:54;3.00;;;1.80;;
79369;SDS011;68835;53.096;17.932;2023-08-24T10:42:21;3.50;;;1.60;;
79369;SDS011;68835;53.096;17.932;2023-08-24T10:44:49;5.40;;;1.90;;
79369;SDS011;68835;53.096;17.932;2023-08-24T10:49:45;3.00;;;1.90;;
79369;SDS011;68835;53.096;17.932;2023-08-24T10:55:00;2.80;;;1.40;;
79369;SDS011;68835;53.096;17.932;2023-08-24T10:57:36;2.30;;;1.50;;
79369;SDS011;68835;53.096;17.932;2023-08-24T11:00:06;3.20;;;1.90;;
79369;SDS011;68835;53.096;17.932;2023-08-24T11:02:46;3.70;;;1.50;;
79369;SDS011;68835;53.096;17.932;2023-08-24T11:10:21;2.80;;;1.80;;
79369;SDS011;68835;53.096;17.932;2023-08-24T11:15:39;5.50;;;2.20;;
79369;SDS011;68835;53.096;17.932;2023-08-24T11:18:27;4.40;;;1.80;;
79369;SDS011;68835;53.096;17.932;2023-08-24T11:21:02;4.30;;;2.10;;
79369;SDS011;68835;53.096;17.932;2023-08-24T11:23:36;3.20;;;1.90;;
79369;SDS011;68835;53.096;17.932;2023-08-24T11:26:05;3.60;;;1.90;;
79369;SDS011;68835;53.096;17.932;2023-08-24T11:28:32;4.00;;;2.00;;
79369;SDS011;68835;53.096;17.932;2023-08-24T11:30:59;3.20;;;1.70;;
79369;SDS011;68835;53.096;17.932;2023-08-24T11:33:31;4.90;;;2.20;;
79369;SDS011;68835;53.096;17.932;2023-08-24T11:36:00;5.70;;;2.20;;
79369;SDS011;68835;53.096;17.932;2023-08-24T11:38:40;2.50;;;1.60;;
79369;SDS011;68835;53.096;17.932;2023-08-24T11:43:42;2.60;;;1.60;;
79369;SDS011;68835;53.096;17.932;2023-08-24T11:46:11;3.70;;;1.50;;
79369;SDS011;68835;53.096;17.932;2023-08-24T11:48:40;2.70;;;1.60;;
79369;SDS011;68835;53.096;17.932;2023-08-24T11:51:08;2.50;;;1.50;;
79369;SDS011;68835;53.096;17.932;2023-08-24T11:53:39;3.50;;;1.80;;
79369;SDS011;68835;53.096;17.932;2023-08-24T11:56:09;2.50;;;1.30;;
79369;SDS011;68835;53.096;17.932;2023-08-24T11:58:40;4.50;;;2.10;;
79369;SDS011;68835;53.096;17.932;2023-08-24T12:01:09;3.00;;;1.80;;
79369;SDS011;68835;53.096;17.932;2023-08-24T12:03:38;3.30;;;1.60;;
79369;SDS011;68835;53.096;17.932;2023-08-24T12:06:10;5.50;;;1.90;;
79369;SDS011;68835;53.096;17.932;2023-08-24T12:08:44;3.20;;;2.20;;
79369;SDS011;68835;53.096;17.932;2023-08-24T12:11:17;3.20;;;2.20;;
79369;SDS011;68835;53.096;17.932;2023-08-24T12:13:47;3.50;;;2.10;;
79369;SDS011;68835;53.096;17.932;2023-08-24T12:16:17;5.40;;;1.80;;
79369;SDS011;68835;53.096;17.932;2023-08-24T12:18:55;2.70;;;1.70;;
79369;SDS011;68835;53.096;17.932;2023-08-24T12:21:26;3.60;;;1.80;;
79369;SDS011;68835;53.096;17.932;2023-08-24T12:23:58;3.60;;;2.10;;
79369;SDS011;68835;53.096;17.932;2023-08-24T12:26:28;3.40;;;1.90;;
79369;SDS011;68835;53.096;17.932;2023-08-24T12:29:00;5.30;;;2.40;;
79369;SDS011;68835;53.096;17.932;2023-08-24T12:31:29;4.10;;;2.20;;
79369;SDS011;68835;53.096;17.932;2023-08-24T12:34:01;4.00;;;1.80;;
79369;SDS011;68835;53.096;17.932;2023-08-24T12:36:33;5.80;;;2.00;;
79369;SDS011;68835;53.096;17.932;2023-08-24T12:39:03;6.80;;;2.20;;
79369;SDS011;68835;53.096;17.932;2023-08-24T12:41:31;2.90;;;1.60;;
79369;SDS011;68835;53.096;17.932;2023-08-24T12:43:58;5.70;;;2.60;;
79369;SDS011;68835;53.096;17.932;2023-08-24T12:46:26;3.70;;;1.90;;
79369;SDS011;68835;53.096;17.932;2023-08-24T12:48:54;1.90;;;1.50;;
79369;SDS011;68835;53.096;17.932;2023-08-24T12:51:21;7.90;;;2.80;;
79369;SDS011;68835;53.096;17.932;2023-08-24T12:53:50;3.10;;;2.00;;
79369;SDS011;68835;53.096;17.932;2023-08-24T12:56:18;3.50;;;2.20;;
79369;SDS011;68835;53.096;17.932;2023-08-24T12:58:45;4.10;;;2.10;;
79369;SDS011;68835;53.096;17.932;2023-08-24T13:01:12;5.90;;;1.80;;
79369;SDS011;68835;53.096;17.932;2023-08-24T13:03:40;3.90;;;2.20;;
79369;SDS011;68835;53.096;17.932;2023-08-24T13:06:07;3.80;;;2.20;;
79369;SDS011;68835;53.096;17.932;2023-08-24T13:08:35;2.70;;;1.80;;
79369;SDS011;68835;53.096;17.932;2023-08-24T13:11:02;4.50;;;2.20;;
79369;SDS011;68835;53.096;17.932;2023-08-24T13:13:29;3.10;;;2.00;;
79369;SDS011;68835;53.096;17.932;2023-08-24T13:15:57;2.80;;;1.70;;
79369;SDS011;68835;53.096;17.932;2023-08-24T13:18:24;3.50;;;2.00;;
79369;SDS011;68835;53.096;17.932;2023-08-24T13:20:51;4.30;;;2.60;;
79369;SDS011;68835;53.096;17.932;2023-08-24T13:23:19;5.10;;;2.30;;
79369;SDS011;68835;53.096;17.932;2023-08-24T13:25:46;7.80;;;2.20;;
79369;SDS011;68835;53.096;17.932;2023-08-24T13:28:14;2.30;;;1.70;;
79369;SDS011;68835;53.096;17.932;2023-08-24T13:30:42;2.90;;;2.30;;
79369;SDS011;68835;53.096;17.932;2023-08-24T13:33:10;3.80;;;2.20;;
79369;SDS011;68835;53.096;17.932;2023-08-24T13:35:39;3.10;;;2.20;;
79369;SDS011;68835;53.096;17.932;2023-08-24T13:38:06;3.60;;;2.30;;
79369;SDS011;68835;53.096;17.932;2023-08-24T13:40:34;7.90;;;2.20;;
79369;SDS011;68835;53.096;17.932;2023-08-24T13:43:01;5.10;;;2.50;;
79369;SDS011;68835;53.096;17.932;2023-08-24T13:45:28;8.60;;;2.20;;
79369;SDS011;68835;53.096;17.932;2023-08-24T13:47:58;4.30;;;2.80;;
79369;SDS011;68835;53.096;17.932;2023-08-24T13:50:25;3.50;;;2.30;;
79369;SDS011;68835;53.096;17.932;2023-08-24T13:52:53;4.50;;;2.00;;
79369;SDS011;68835;53.096;17.932;2023-08-24T13:55:20;3.20;;;2.00;;
79369;SDS011;68835;53.096;17.932;2023-08-24T13:57:47;3.00;;;1.90;;
79369;SDS011;68835;53.096;17.932;2023-08-24T14:00:15;3.20;;;2.20;;
79369;SDS011;68835;53.096;17.932;2023-08-24T14:02:43;5.10;;;2.40;;
79369;SDS011;68835;53.096;17.932;2023-08-24T14:05:12;6.10;;;2.30;;
79369;SDS011;68835;53.096;17.932;2023-08-24T14:07:40;4.50;;;2.60;;
79369;SDS011;68835;53.096;17.932;2023-08-24T14:10:08;3.00;;;1.90;;
79369;SDS011;68835;53.096;17.932;2023-08-24T14:12:36;3.80;;;1.80;;
79369;SDS011;68835;53.096;17.932;2023-08-24T14:15:03;3.40;;;1.70;;
79369;SDS011;68835;53.096;17.932;2023-08-24T14:17:31;3.20;;;2.20;;
79369;SDS011;68835;53.096;17.932;2023-08-24T14:19:58;3.90;;;2.10;;
79369;SDS011;68835;53.096;17.932;2023-08-24T14:22:26;5.00;;;2.30;;
79369;SDS011;68835;53.096;17.932;2023-08-24T14:24:53;3.20;;;2.30;;
79369;SDS011;68835;53.096;17.932;2023-08-24T14:27:21;4.60;;;2.30;;
79369;SDS011;68835;53.096;17.932;2023-08-24T14:29:48;4.20;;;2.40;;
79369;SDS011;68835;53.096;17.932;2023-08-24T14:32:15;3.20;;;2.50;;
79369;SDS011;68835;53.096;17.932;2023-08-24T14:34:42;5.30;;;2.70;;
79369;SDS011;68835;53.096;17.932;2023-08-24T14:37:10;5.30;;;2.50;;
79369;SDS011;68835;53.096;17.932;2023-08-24T14:39:37;4.50;;;2.50;;
79369;SDS011;68835;53.096;17.932;2023-08-24T14:42:05;3.60;;;2.30;;
79369;SDS011;68835;53.096;17.932;2023-08-24T14:44:32;3.70;;;2.20;;
79369;SDS011;68835;53.096;17.932;2023-08-24T14:47:00;3.90;;;2.10;;
79369;SDS011;68835;53.096;17.932;2023-08-24T14:49:28;2.30;;;2.00;;
79369;SDS011;68835;53.096;17.932;2023-08-24T14:51:55;5.30;;;2.30;;
79369;SDS011;68835;53.096;17.932;2023-08-24T14:54:23;5.40;;;2.60;;
79369;SDS011;68835;53.096;17.932;2023-08-24T14:56:50;4.30;;;2.50;;
79369;SDS011;68835;53.096;17.932;2023-08-24T14:59:17;4.30;;;2.70;;
79369;SDS011;68835;53.096;17.932;2023-08-24T15:01:44;3.30;;;2.10;;
79369;SDS011;68835;53.096;17.932;2023-08-24T15:04:12;3.60;;;2.60;;
79369;SDS011;68835;53.096;17.932;2023-08-24T15:06:39;6.10;;;2.70;;
79369;SDS011;68835;53.096;17.932;2023-08-24T15:09:07;4.80;;;2.40;;
79369;SDS011;68835;53.096;17.932;2023-08-24T15:11:34;3.70;;;2.40;;
79369;SDS011;68835;53.096;17.932;2023-08-24T15:14:01;3.50;;;2.40;;
79369;SDS011;68835;53.096;17.932;2023-08-24T15:16:29;4.50;;;2.30;;
79369;SDS011;68835;53.096;17.932;2023-08-24T15:18:56;3.70;;;2.70;;
79369;SDS011;68835;53.096;17.932;2023-08-24T15:21:24;4.50;;;2.50;;
79369;SDS011;68835;53.096;17.932;2023-08-24T15:23:51;5.80;;;2.80;;
79369;SDS011;68835;53.096;17.932;2023-08-24T15:26:18;6.90;;;2.60;;
79369;SDS011;68835;53.096;17.932;2023-08-24T15:31:39;5.90;;;2.60;;
79369;SDS011;68835;53.096;17.932;2023-08-24T15:34:07;3.80;;;2.20;;
79369;SDS011;68835;53.096;17.932;2023-08-24T15:36:35;3.00;;;2.30;;
79369;SDS011;68835;53.096;17.932;2023-08-24T15:39:03;6.60;;;2.60;;
79369;SDS011;68835;53.096;17.932;2023-08-24T15:41:31;4.30;;;2.70;;
79369;SDS011;68835;53.096;17.932;2023-08-24T15:43:58;5.70;;;2.60;;
79369;SDS011;68835;53.096;17.932;2023-08-24T15:46:26;4.00;;;2.50;;
79369;SDS011;68835;53.096;17.932;2023-08-24T15:48:53;3.30;;;2.30;;
79369;SDS011;68835;53.096;17.932;2023-08-24T15:51:22;5.60;;;2.30;;
79369;SDS011;68835;53.096;17.932;2023-08-24T15:53:50;4.00;;;2.30;;
79369;SDS011;68835;53.096;17.932;2023-08-24T15:56:17;5.00;;;3.00;;
79369;SDS011;68835;53.096;17.932;2023-08-24T15:58:45;10.10;;;2.70;;
79369;SDS011;68835;53.096;17.932;2023-08-24T16:01:13;4.40;;;2.50;;
79369;SDS011;68835;53.096;17.932;2023-08-24T16:03:40;5.10;;;2.60;;